sensor_id;sensor_type;location;lat;lon;timestamp;P1;durP1;ratioP1;P2;durP2;ratioP2
68858;SDS011;55864;49.238;8.092;2024-03-02T00:01:03;5.32;;;1.67;;
68858;SDS011;55864;49.238;8.092;2024-03-02T00:03:03;4.90;;;1.57;;
68858;SDS011;55864;49.238;8.092;2024-03-02T00:05:05;3.97;;;1.50;;
68858;SDS011;55864;49.238;8.092;2024-03-02T00:07:06;6.70;;;1.70;;
68858;SDS011;55864;49.238;8.092;2024-03-02T00:09:07;5.70;;;1.70;;
68858;SDS011;55864;49.238;8.092;2024-03-02T00:11:10;6.28;;;2.40;;
68858;SDS011;55864;49.238;8.092;2024-03-02T00:13:11;7.43;;;2.43;;
68858;SDS011;55864;49.238;8.092;2024-03-02T00:15:21;5.67;;;1.87;;
68858;SDS011;55864;49.238;8.092;2024-03-02T00:17:39;6.50;;;2.03;;
68858;SDS011;55864;49.238;8.092;2024-03-02T00:19:40;5.73;;;2.17;;
68858;SDS011;55864;49.238;8.092;2024-03-02T00:21:40;5.70;;;1.80;;
68858;SDS011;55864;49.238;8.092;2024-03-02T00:23:41;5.87;;;2.17;;
68858;SDS011;55864;49.238;8.092;2024-03-02T00:25:42;5.13;;;2.00;;
68858;SDS011;55864;49.238;8.092;2024-03-02T00:27:46;5.63;;;2.37;;
68858;SDS011;55864;49.238;8.092;2024-03-02T00:29:47;5.80;;;2.47;;
68858;SDS011;55864;49.238;8.092;2024-03-02T00:31:49;6.07;;;2.20;;
68858;SDS011;55864;49.238;8.092;2024-03-02T00:33:50;5.30;;;2.00;;
68858;SDS011;55864;49.238;8.092;2024-03-02T00:35:50;7.93;;;2.60;;
68858;SDS011;55864;49.238;8.092;2024-03-02T00:37:51;6.70;;;2.70;;
68858;SDS011;55864;49.238;8.092;2024-03-02T00:39:51;7.07;;;2.53;;
68858;SDS011;55864;49.238;8.092;2024-03-02T00:41:52;9.37;;;3.10;;
68858;SDS011;55864;49.238;8.092;2024-03-02T00:43:59;6.83;;;2.93;;
68858;SDS011;55864;49.238;8.092;2024-03-02T00:46:00;7.53;;;2.87;;
68858;SDS011;55864;49.238;8.092;2024-03-02T00:48:02;8.40;;;3.20;;
68858;SDS011;55864;49.238;8.092;2024-03-02T00:50:04;7.22;;;3.20;;
68858;SDS011;55864;49.238;8.092;2024-03-02T00:52:06;7.10;;;3.10;;
68858;SDS011;55864;49.238;8.092;2024-03-02T00:54:07;7.60;;;2.90;;
68858;SDS011;55864;49.238;8.092;2024-03-02T00:56:09;7.80;;;3.10;;
68858;SDS011;55864;49.238;8.092;2024-03-02T00:58:11;7.10;;;3.10;;
68858;SDS011;55864;49.238;8.092;2024-03-02T01:00:12;6.43;;;2.87;;
68858;SDS011;55864;49.238;8.092;2024-03-02T01:02:13;6.77;;;3.37;;
68858;SDS011;55864;49.238;8.092;2024-03-02T01:04:15;10.23;;;2.97;;
68858;SDS011;55864;49.238;8.092;2024-03-02T01:06:16;6.37;;;2.63;;
68858;SDS011;55864;49.238;8.092;2024-03-02T01:08:17;8.93;;;2.90;;
68858;SDS011;55864;49.238;8.092;2024-03-02T01:10:17;7.17;;;2.70;;
68858;SDS011;55864;49.238;8.092;2024-03-02T01:12:18;6.70;;;2.80;;
68858;SDS011;55864;49.238;8.092;2024-03-02T01:14:18;7.67;;;3.20;;
68858;SDS011;55864;49.238;8.092;2024-03-02T01:16:19;6.10;;;2.80;;
68858;SDS011;55864;49.238;8.092;2024-03-02T01:18:20;7.07;;;3.13;;
68858;SDS011;55864;49.238;8.092;2024-03-02T01:20:22;7.47;;;2.83;;
68858;SDS011;55864;49.238;8.092;2024-03-02T01:22:22;6.30;;;2.90;;
68858;SDS011;55864;49.238;8.092;2024-03-02T01:24:23;6.77;;;2.97;;
68858;SDS011;55864;49.238;8.092;2024-03-02T01:26:23;7.47;;;3.10;;
68858;SDS011;55864;49.238;8.092;2024-03-02T01:28:24;7.03;;;3.20;;
68858;SDS011;55864;49.238;8.092;2024-03-02T01:30:24;7.67;;;3.33;;
68858;SDS011;55864;49.238;8.092;2024-03-02T01:32:25;6.77;;;3.20;;
68858;SDS011;55864;49.238;8.092;2024-03-02T01:34:25;7.23;;;3.07;;
68858;SDS011;55864;49.238;8.092;2024-03-02T01:36:27;11.00;;;3.20;;
68858;SDS011;55864;49.238;8.092;2024-03-02T01:38:28;6.37;;;2.90;;
68858;SDS011;55864;49.238;8.092;2024-03-02T01:40:28;8.40;;;3.27;;
68858;SDS011;55864;49.238;8.092;2024-03-02T01:42:29;8.07;;;3.30;;
68858;SDS011;55864;49.238;8.092;2024-03-02T01:44:29;6.30;;;2.97;;
68858;SDS011;55864;49.238;8.092;2024-03-02T01:46:30;7.20;;;3.20;;
68858;SDS011;55864;49.238;8.092;2024-03-02T01:48:30;6.83;;;3.27;;
68858;SDS011;55864;49.238;8.092;2024-03-02T01:50:31;6.80;;;3.03;;
68858;SDS011;55864;49.238;8.092;2024-03-02T01:52:34;7.47;;;3.37;;
68858;SDS011;55864;49.238;8.092;2024-03-02T01:54:35;6.77;;;3.30;;
68858;SDS011;55864;49.238;8.092;2024-03-02T01:56:35;7.00;;;3.10;;
68858;SDS011;55864;49.238;8.092;2024-03-02T01:58:36;7.20;;;3.50;;
68858;SDS011;55864;49.238;8.092;2024-03-02T02:00:36;7.83;;;3.40;;
68858;SDS011;55864;49.238;8.092;2024-03-02T02:02:37;8.00;;;3.40;;
68858;SDS011;55864;49.238;8.092;2024-03-02T02:04:38;8.53;;;3.37;;
68858;SDS011;55864;49.238;8.092;2024-03-02T02:06:38;8.80;;;3.90;;
68858;SDS011;55864;49.238;8.092;2024-03-02T02:08:40;8.70;;;3.70;;
68858;SDS011;55864;49.238;8.092;2024-03-02T02:10:41;7.57;;;3.30;;
68858;SDS011;55864;49.238;8.092;2024-03-02T02:12:41;8.07;;;3.23;;
68858;SDS011;55864;49.238;8.092;2024-03-02T02:14:46;8.63;;;3.27;;
68858;SDS011;55864;49.238;8.092;2024-03-02T02:16:47;7.63;;;3.40;;
68858;SDS011;55864;49.238;8.092;2024-03-02T02:18:48;7.00;;;3.43;;
68858;SDS011;55864;49.238;8.092;2024-03-02T02:20:48;7.47;;;3.27;;
68858;SDS011;55864;49.238;8.092;2024-03-02T02:23:00;6.80;;;3.07;;
68858;SDS011;55864;49.238;8.092;2024-03-02T02:25:01;6.47;;;3.40;;
68858;SDS011;55864;49.238;8.092;2024-03-02T02:27:01;6.77;;;2.90;;
68858;SDS011;55864;49.238;8.092;2024-03-02T02:29:02;5.97;;;2.80;;
68858;SDS011;55864;49.238;8.092;2024-03-02T02:31:02;6.60;;;3.00;;
68858;SDS011;55864;49.238;8.092;2024-03-02T02:33:03;6.37;;;2.73;;
68858;SDS011;55864;49.238;8.092;2024-03-02T02:35:04;5.97;;;2.70;;
68858;SDS011;55864;49.238;8.092;2024-03-02T02:37:05;7.20;;;3.30;;
68858;SDS011;55864;49.238;8.092;2024-03-02T02:39:07;8.33;;;3.30;;
68858;SDS011;55864;49.238;8.092;2024-03-02T02:41:10;10.10;;;3.73;;
68858;SDS011;55864;49.238;8.092;2024-03-02T02:43:11;6.87;;;3.17;;
68858;SDS011;55864;49.238;8.092;2024-03-02T02:45:12;6.97;;;3.37;;
68858;SDS011;55864;49.238;8.092;2024-03-02T02:47:13;7.50;;;3.63;;
68858;SDS011;55864;49.238;8.092;2024-03-02T02:49:13;7.83;;;3.70;;
68858;SDS011;55864;49.238;8.092;2024-03-02T02:51:14;8.87;;;3.77;;
68858;SDS011;55864;49.238;8.092;2024-03-02T02:53:14;7.60;;;3.70;;
68858;SDS011;55864;49.238;8.092;2024-03-02T02:55:16;8.57;;;3.90;;
68858;SDS011;55864;49.238;8.092;2024-03-02T02:57:16;8.60;;;4.33;;
68858;SDS011;55864;49.238;8.092;2024-03-02T02:59:17;8.43;;;4.30;;
68858;SDS011;55864;49.238;8.092;2024-03-02T03:01:17;8.37;;;4.40;;
68858;SDS011;55864;49.238;8.092;2024-03-02T03:03:18;8.57;;;4.27;;
68858;SDS011;55864;49.238;8.092;2024-03-02T03:05:18;9.70;;;4.63;;
68858;SDS011;55864;49.238;8.092;2024-03-02T03:07:19;10.73;;;4.30;;
68858;SDS011;55864;49.238;8.092;2024-03-02T03:09:20;9.10;;;4.47;;
68858;SDS011;55864;49.238;8.092;2024-03-02T03:11:22;7.87;;;3.90;;
68858;SDS011;55864;49.238;8.092;2024-03-02T03:13:22;8.03;;;3.73;;
68858;SDS011;55864;49.238;8.092;2024-03-02T03:15:23;8.23;;;4.03;;
68858;SDS011;55864;49.238;8.092;2024-03-02T03:17:23;8.97;;;4.07;;
68858;SDS011;55864;49.238;8.092;2024-03-02T03:19:24;8.13;;;4.17;;
68858;SDS011;55864;49.238;8.092;2024-03-02T03:21:24;10.10;;;4.17;;
68858;SDS011;55864;49.238;8.092;2024-03-02T03:23:25;9.90;;;4.40;;
68858;SDS011;55864;49.238;8.092;2024-03-02T03:25:25;8.37;;;3.77;;
68858;SDS011;55864;49.238;8.092;2024-03-02T03:27:27;9.10;;;3.83;;
68858;SDS011;55864;49.238;8.092;2024-03-02T03:29:28;8.30;;;3.70;;
68858;SDS011;55864;49.238;8.092;2024-03-02T03:31:28;7.90;;;3.60;;
68858;SDS011;55864;49.238;8.092;2024-03-02T03:33:29;7.37;;;3.47;;
68858;SDS011;55864;49.238;8.092;2024-03-02T03:35:29;7.93;;;3.63;;
68858;SDS011;55864;49.238;8.092;2024-03-02T03:37:30;6.97;;;3.50;;
68858;SDS011;55864;49.238;8.092;2024-03-02T03:39:30;7.00;;;3.40;;
68858;SDS011;55864;49.238;8.092;2024-03-02T03:41:31;8.80;;;3.90;;
68858;SDS011;55864;49.238;8.092;2024-03-02T03:43:33;8.70;;;4.07;;
68858;SDS011;55864;49.238;8.092;2024-03-02T03:45:33;8.27;;;3.93;;
68858;SDS011;55864;49.238;8.092;2024-03-02T03:47:34;9.90;;;4.53;;
68858;SDS011;55864;49.238;8.092;2024-03-02T03:49:34;8.63;;;3.87;;
68858;SDS011;55864;49.238;8.092;2024-03-02T03:51:35;10.37;;;4.63;;
68858;SDS011;55864;49.238;8.092;2024-03-02T03:53:35;8.27;;;4.07;;
68858;SDS011;55864;49.238;8.092;2024-03-02T03:55:36;10.53;;;4.27;;
68858;SDS011;55864;49.238;8.092;2024-03-02T03:57:36;10.97;;;4.70;;
68858;SDS011;55864;49.238;8.092;2024-03-02T03:59:38;10.67;;;5.20;;
68858;SDS011;55864;49.238;8.092;2024-03-02T04:01:39;9.40;;;4.80;;
68858;SDS011;55864;49.238;8.092;2024-03-02T04:03:39;9.23;;;4.70;;
68858;SDS011;55864;49.238;8.092;2024-03-02T04:05:40;7.83;;;3.93;;
68858;SDS011;55864;49.238;8.092;2024-03-02T04:07:40;9.57;;;4.57;;
68858;SDS011;55864;49.238;8.092;2024-03-02T04:09:41;9.20;;;4.20;;
68858;SDS011;55864;49.238;8.092;2024-03-02T04:11:41;8.80;;;4.47;;
68858;SDS011;55864;49.238;8.092;2024-03-02T04:13:42;9.00;;;4.00;;
68858;SDS011;55864;49.238;8.092;2024-03-02T04:15:44;7.47;;;3.73;;
68858;SDS011;55864;49.238;8.092;2024-03-02T04:17:44;9.70;;;4.20;;
68858;SDS011;55864;49.238;8.092;2024-03-02T04:19:44;8.10;;;3.63;;
68858;SDS011;55864;49.238;8.092;2024-03-02T04:21:45;7.07;;;3.20;;
68858;SDS011;55864;49.238;8.092;2024-03-02T04:23:45;8.43;;;3.27;;
68858;SDS011;55864;49.238;8.092;2024-03-02T04:25:46;7.17;;;3.30;;
68858;SDS011;55864;49.238;8.092;2024-03-02T04:27:46;6.53;;;3.10;;
68858;SDS011;55864;49.238;8.092;2024-03-02T04:29:47;7.87;;;3.23;;
68858;SDS011;55864;49.238;8.092;2024-03-02T04:31:49;7.50;;;3.40;;
68858;SDS011;55864;49.238;8.092;2024-03-02T04:33:49;7.77;;;3.17;;
68858;SDS011;55864;49.238;8.092;2024-03-02T04:35:50;6.83;;;3.20;;
68858;SDS011;55864;49.238;8.092;2024-03-02T04:37:50;8.37;;;2.90;;
68858;SDS011;55864;49.238;8.092;2024-03-02T04:39:51;6.63;;;2.97;;
68858;SDS011;55864;49.238;8.092;2024-03-02T04:41:51;7.00;;;3.20;;
68858;SDS011;55864;49.238;8.092;2024-03-02T04:43:52;7.93;;;3.10;;
68858;SDS011;55864;49.238;8.092;2024-03-02T04:45:52;6.53;;;3.20;;
68858;SDS011;55864;49.238;8.092;2024-03-02T04:47:54;7.00;;;3.20;;
68858;SDS011;55864;49.238;8.092;2024-03-02T04:49:55;8.00;;;3.47;;
68858;SDS011;55864;49.238;8.092;2024-03-02T04:51:55;7.53;;;3.33;;
68858;SDS011;55864;49.238;8.092;2024-03-02T04:53:56;9.63;;;3.83;;
68858;SDS011;55864;49.238;8.092;2024-03-02T04:55:56;10.37;;;3.80;;
68858;SDS011;55864;49.238;8.092;2024-03-02T04:57:57;9.13;;;3.70;;
68858;SDS011;55864;49.238;8.092;2024-03-02T04:59:57;10.07;;;4.27;;
68858;SDS011;55864;49.238;8.092;2024-03-02T05:01:58;11.17;;;4.57;;
68858;SDS011;55864;49.238;8.092;2024-03-02T05:04:00;12.50;;;4.67;;
68858;SDS011;55864;49.238;8.092;2024-03-02T05:06:00;9.13;;;4.37;;
68858;SDS011;55864;49.238;8.092;2024-03-02T05:08:01;12.63;;;4.33;;
68858;SDS011;55864;49.238;8.092;2024-03-02T05:10:01;9.73;;;4.57;;
68858;SDS011;55864;49.238;8.092;2024-03-02T05:12:02;10.67;;;4.73;;
68858;SDS011;55864;49.238;8.092;2024-03-02T05:14:03;9.57;;;4.70;;
68858;SDS011;55864;49.238;8.092;2024-03-02T05:16:03;9.40;;;4.83;;
68858;SDS011;55864;49.238;8.092;2024-03-02T05:18:04;10.90;;;4.80;;
68858;SDS011;55864;49.238;8.092;2024-03-02T05:20:07;9.13;;;4.63;;
68858;SDS011;55864;49.238;8.092;2024-03-02T05:24:08;10.47;;;5.30;;
68858;SDS011;55864;49.238;8.092;2024-03-02T05:26:09;11.40;;;5.57;;
68858;SDS011;55864;49.238;8.092;2024-03-02T05:28:10;13.00;;;5.17;;
68858;SDS011;55864;49.238;8.092;2024-03-02T05:30:11;11.00;;;5.13;;
68858;SDS011;55864;49.238;8.092;2024-03-02T05:32:11;9.00;;;4.37;;
68858;SDS011;55864;49.238;8.092;2024-03-02T05:34:12;10.33;;;4.60;;
68858;SDS011;55864;49.238;8.092;2024-03-02T05:36:14;10.93;;;4.60;;
68858;SDS011;55864;49.238;8.092;2024-03-02T05:38:14;9.67;;;4.27;;
68858;SDS011;55864;49.238;8.092;2024-03-02T05:40:15;8.70;;;4.30;;
68858;SDS011;55864;49.238;8.092;2024-03-02T05:42:15;9.50;;;4.10;;
68858;SDS011;55864;49.238;8.092;2024-03-02T05:44:16;8.87;;;4.23;;
68858;SDS011;55864;49.238;8.092;2024-03-02T05:46:16;9.87;;;4.60;;
68858;SDS011;55864;49.238;8.092;2024-03-02T05:48:17;8.90;;;4.40;;
68858;SDS011;55864;49.238;8.092;2024-03-02T05:50:17;9.20;;;4.70;;
68858;SDS011;55864;49.238;8.092;2024-03-02T05:52:19;10.57;;;4.53;;
68858;SDS011;55864;49.238;8.092;2024-03-02T05:54:20;9.17;;;4.53;;
68858;SDS011;55864;49.238;8.092;2024-03-02T05:56:20;9.40;;;4.50;;
68858;SDS011;55864;49.238;8.092;2024-03-02T05:58:21;8.63;;;4.27;;
68858;SDS011;55864;49.238;8.092;2024-03-02T06:00:21;10.13;;;4.60;;
68858;SDS011;55864;49.238;8.092;2024-03-02T06:02:22;10.20;;;4.60;;
68858;SDS011;55864;49.238;8.092;2024-03-02T06:04:22;9.47;;;4.60;;
68858;SDS011;55864;49.238;8.092;2024-03-02T06:06:23;9.47;;;4.83;;
68858;SDS011;55864;49.238;8.092;2024-03-02T06:08:25;8.00;;;4.13;;
68858;SDS011;55864;49.238;8.092;2024-03-02T06:10:25;10.80;;;4.53;;
68858;SDS011;55864;49.238;8.092;2024-03-02T06:12:26;9.50;;;4.43;;
68858;SDS011;55864;49.238;8.092;2024-03-02T06:14:26;12.23;;;5.60;;
68858;SDS011;55864;49.238;8.092;2024-03-02T06:16:27;11.63;;;5.10;;
68858;SDS011;55864;49.238;8.092;2024-03-02T06:18:27;10.53;;;5.00;;
68858;SDS011;55864;49.238;8.092;2024-03-02T06:20:28;9.57;;;5.13;;
68858;SDS011;55864;49.238;8.092;2024-03-02T06:22:28;11.17;;;5.63;;
68858;SDS011;55864;49.238;8.092;2024-03-02T06:24:30;12.40;;;6.30;;
68858;SDS011;55864;49.238;8.092;2024-03-02T06:26:30;12.80;;;6.90;;
68858;SDS011;55864;49.238;8.092;2024-03-02T06:28:31;13.73;;;7.23;;
68858;SDS011;55864;49.238;8.092;2024-03-02T06:30:31;14.83;;;7.83;;
68858;SDS011;55864;49.238;8.092;2024-03-02T06:32:32;17.63;;;9.57;;
68858;SDS011;55864;49.238;8.092;2024-03-02T06:34:32;16.07;;;9.03;;
68858;SDS011;55864;49.238;8.092;2024-03-02T06:36:33;14.70;;;7.40;;
68858;SDS011;55864;49.238;8.092;2024-03-02T06:38:33;14.17;;;7.73;;
68858;SDS011;55864;49.238;8.092;2024-03-02T06:40:35;13.53;;;7.70;;
68858;SDS011;55864;49.238;8.092;2024-03-02T06:42:36;13.20;;;7.17;;
68858;SDS011;55864;49.238;8.092;2024-03-02T06:44:36;12.50;;;6.63;;
68858;SDS011;55864;49.238;8.092;2024-03-02T06:46:37;15.47;;;7.40;;
68858;SDS011;55864;49.238;8.092;2024-03-02T06:48:37;14.53;;;8.03;;
68858;SDS011;55864;49.238;8.092;2024-03-02T06:50:38;16.37;;;9.00;;
68858;SDS011;55864;49.238;8.092;2024-03-02T06:52:38;281.73;;;22.57;;
68858;SDS011;55864;49.238;8.092;2024-03-02T06:54:39;14.17;;;8.60;;
68858;SDS011;55864;49.238;8.092;2024-03-02T06:56:40;12.87;;;7.67;;
68858;SDS011;55864;49.238;8.092;2024-03-02T06:58:41;14.67;;;7.37;;
68858;SDS011;55864;49.238;8.092;2024-03-02T07:00:42;13.23;;;6.73;;
68858;SDS011;55864;49.238;8.092;2024-03-02T07:02:42;12.97;;;6.70;;
68858;SDS011;55864;49.238;8.092;2024-03-02T07:04:43;11.80;;;6.30;;
68858;SDS011;55864;49.238;8.092;2024-03-02T07:06:43;11.67;;;6.50;;
68858;SDS011;55864;49.238;8.092;2024-03-02T07:08:44;13.17;;;7.40;;
68858;SDS011;55864;49.238;8.092;2024-03-02T07:10:44;16.10;;;9.43;;
68858;SDS011;55864;49.238;8.092;2024-03-02T07:12:46;18.07;;;9.03;;
68858;SDS011;55864;49.238;8.092;2024-03-02T07:14:47;14.17;;;8.00;;
68858;SDS011;55864;49.238;8.092;2024-03-02T07:16:47;15.43;;;8.57;;
68858;SDS011;55864;49.238;8.092;2024-03-02T07:18:48;15.63;;;9.30;;
68858;SDS011;55864;49.238;8.092;2024-03-02T07:20:48;17.23;;;8.50;;
68858;SDS011;55864;49.238;8.092;2024-03-02T07:22:49;17.40;;;9.83;;
68858;SDS011;55864;49.238;8.092;2024-03-02T07:24:49;18.17;;;9.80;;
68858;SDS011;55864;49.238;8.092;2024-03-02T07:26:50;16.77;;;9.70;;
68858;SDS011;55864;49.238;8.092;2024-03-02T07:28:52;19.77;;;10.20;;
68858;SDS011;55864;49.238;8.092;2024-03-02T07:30:57;21.90;;;10.70;;
68858;SDS011;55864;49.238;8.092;2024-03-02T07:32:58;19.07;;;10.00;;
68858;SDS011;55864;49.238;8.092;2024-03-02T07:34:58;19.47;;;10.03;;
68858;SDS011;55864;49.238;8.092;2024-03-02T07:36:59;17.83;;;9.17;;
68858;SDS011;55864;49.238;8.092;2024-03-02T07:38:59;16.80;;;9.03;;
68858;SDS011;55864;49.238;8.092;2024-03-02T07:41:00;16.10;;;8.60;;
68858;SDS011;55864;49.238;8.092;2024-03-02T07:43:01;15.97;;;8.27;;
68858;SDS011;55864;49.238;8.092;2024-03-02T07:45:03;15.70;;;8.23;;
68858;SDS011;55864;49.238;8.092;2024-03-02T07:47:04;14.15;;;7.80;;
68858;SDS011;55864;49.238;8.092;2024-03-02T07:49:04;14.43;;;7.77;;
68858;SDS011;55864;49.238;8.092;2024-03-02T07:51:05;16.10;;;8.27;;
68858;SDS011;55864;49.238;8.092;2024-03-02T07:53:05;13.47;;;7.77;;
68858;SDS011;55864;49.238;8.092;2024-03-02T07:55:06;19.83;;;8.70;;
68858;SDS011;55864;49.238;8.092;2024-03-02T07:57:07;16.80;;;8.83;;
68858;SDS011;55864;49.238;8.092;2024-03-02T07:59:08;16.90;;;9.33;;
68858;SDS011;55864;49.238;8.092;2024-03-02T08:01:10;15.30;;;8.13;;
68858;SDS011;55864;49.238;8.092;2024-03-02T08:03:11;16.30;;;8.63;;
68858;SDS011;55864;49.238;8.092;2024-03-02T08:05:11;14.93;;;8.40;;
68858;SDS011;55864;49.238;8.092;2024-03-02T08:07:12;16.90;;;8.97;;
68858;SDS011;55864;49.238;8.092;2024-03-02T08:09:12;15.63;;;8.90;;
68858;SDS011;55864;49.238;8.092;2024-03-02T08:11:13;15.47;;;8.13;;
68858;SDS011;55864;49.238;8.092;2024-03-02T08:13:13;14.87;;;8.77;;
68858;SDS011;55864;49.238;8.092;2024-03-02T08:15:14;15.93;;;7.93;;
68858;SDS011;55864;49.238;8.092;2024-03-02T08:17:16;15.03;;;8.13;;
68858;SDS011;55864;49.238;8.092;2024-03-02T08:19:16;16.73;;;8.90;;
68858;SDS011;55864;49.238;8.092;2024-03-02T08:21:17;14.73;;;8.40;;
68858;SDS011;55864;49.238;8.092;2024-03-02T08:23:18;17.77;;;8.63;;
68858;SDS011;55864;49.238;8.092;2024-03-02T08:25:18;16.47;;;9.47;;
68858;SDS011;55864;49.238;8.092;2024-03-02T08:27:19;17.40;;;9.47;;
68858;SDS011;55864;49.238;8.092;2024-03-02T08:29:19;15.13;;;9.03;;
68858;SDS011;55864;49.238;8.092;2024-03-02T08:31:20;14.77;;;7.77;;
68858;SDS011;55864;49.238;8.092;2024-03-02T08:33:22;17.47;;;8.50;;
68858;SDS011;55864;49.238;8.092;2024-03-02T08:35:22;15.63;;;8.17;;
68858;SDS011;55864;49.238;8.092;2024-03-02T08:37:23;14.77;;;7.77;;
68858;SDS011;55864;49.238;8.092;2024-03-02T08:39:23;15.43;;;7.70;;
68858;SDS011;55864;49.238;8.092;2024-03-02T08:41:24;17.13;;;8.30;;
68858;SDS011;55864;49.238;8.092;2024-03-02T08:43:24;15.87;;;8.00;;
68858;SDS011;55864;49.238;8.092;2024-03-02T08:45:25;13.77;;;7.73;;
68858;SDS011;55864;49.238;8.092;2024-03-02T08:47:26;15.53;;;8.37;;
68858;SDS011;55864;49.238;8.092;2024-03-02T08:49:28;14.93;;;8.00;;
68858;SDS011;55864;49.238;8.092;2024-03-02T08:51:28;18.50;;;10.03;;
68858;SDS011;55864;49.238;8.092;2024-03-02T08:53:28;16.37;;;8.47;;
68858;SDS011;55864;49.238;8.092;2024-03-02T08:55:29;18.20;;;9.27;;
68858;SDS011;55864;49.238;8.092;2024-03-02T08:57:30;13.60;;;7.37;;
68858;SDS011;55864;49.238;8.092;2024-03-02T08:59:30;16.07;;;7.50;;
68858;SDS011;55864;49.238;8.092;2024-03-02T09:01:31;15.17;;;7.53;;
68858;SDS011;55864;49.238;8.092;2024-03-02T09:03:32;16.30;;;7.60;;
68858;SDS011;55864;49.238;8.092;2024-03-02T09:05:34;14.10;;;7.47;;
68858;SDS011;55864;49.238;8.092;2024-03-02T09:07:35;15.00;;;7.53;;
68858;SDS011;55864;49.238;8.092;2024-03-02T09:09:35;14.27;;;6.40;;
68858;SDS011;55864;49.238;8.092;2024-03-02T09:11:36;13.37;;;7.30;;
68858;SDS011;55864;49.238;8.092;2024-03-02T09:13:36;13.07;;;6.70;;
68858;SDS011;55864;49.238;8.092;2024-03-02T09:15:37;11.80;;;6.00;;
68858;SDS011;55864;49.238;8.092;2024-03-02T09:17:38;12.67;;;6.13;;
68858;SDS011;55864;49.238;8.092;2024-03-02T09:19:39;10.90;;;5.60;;
68858;SDS011;55864;49.238;8.092;2024-03-02T09:21:41;12.73;;;7.97;;
68858;SDS011;55864;49.238;8.092;2024-03-02T09:23:42;12.43;;;6.27;;
68858;SDS011;55864;49.238;8.092;2024-03-02T09:25:42;13.23;;;7.07;;
68858;SDS011;55864;49.238;8.092;2024-03-02T09:27:42;11.27;;;6.10;;
68858;SDS011;55864;49.238;8.092;2024-03-02T09:29:43;13.27;;;6.27;;
68858;SDS011;55864;49.238;8.092;2024-03-02T09:31:43;12.50;;;6.37;;
68858;SDS011;55864;49.238;8.092;2024-03-02T09:33:44;12.77;;;6.53;;
68858;SDS011;55864;49.238;8.092;2024-03-02T09:35:44;12.87;;;6.53;;
68858;SDS011;55864;49.238;8.092;2024-03-02T09:37:46;13.30;;;6.70;;
68858;SDS011;55864;49.238;8.092;2024-03-02T09:39:47;14.23;;;6.40;;
68858;SDS011;55864;49.238;8.092;2024-03-02T09:41:47;13.73;;;6.43;;
68858;SDS011;55864;49.238;8.092;2024-03-02T09:43:48;12.17;;;6.57;;
68858;SDS011;55864;49.238;8.092;2024-03-02T09:45:50;16.93;;;6.77;;
68858;SDS011;55864;49.238;8.092;2024-03-02T09:47:51;13.47;;;6.03;;
68858;SDS011;55864;49.238;8.092;2024-03-02T09:49:51;13.73;;;6.40;;
68858;SDS011;55864;49.238;8.092;2024-03-02T09:51:52;12.47;;;6.50;;
68858;SDS011;55864;49.238;8.092;2024-03-02T09:53:55;13.67;;;6.50;;
68858;SDS011;55864;49.238;8.092;2024-03-02T09:55:55;50.73;;;8.53;;
68858;SDS011;55864;49.238;8.092;2024-03-02T09:57:56;13.30;;;6.30;;
68858;SDS011;55864;49.238;8.092;2024-03-02T09:59:56;11.83;;;6.23;;
68858;SDS011;55864;49.238;8.092;2024-03-02T10:01:57;12.70;;;6.23;;
68858;SDS011;55864;49.238;8.092;2024-03-02T10:03:59;11.50;;;5.90;;
68858;SDS011;55864;49.238;8.092;2024-03-02T10:08:18;12.23;;;6.60;;
68858;SDS011;55864;49.238;8.092;2024-03-02T10:10:21;11.40;;;6.10;;
68858;SDS011;55864;49.238;8.092;2024-03-02T10:12:22;10.05;;;5.65;;
68858;SDS011;55864;49.238;8.092;2024-03-02T10:14:22;10.67;;;5.60;;
68858;SDS011;55864;49.238;8.092;2024-03-02T10:16:23;12.57;;;5.80;;
68858;SDS011;55864;49.238;8.092;2024-03-02T10:18:26;10.20;;;5.87;;
68858;SDS011;55864;49.238;8.092;2024-03-02T10:22:28;10.50;;;5.60;;
68858;SDS011;55864;49.238;8.092;2024-03-02T10:24:34;11.83;;;5.83;;
68858;SDS011;55864;49.238;8.092;2024-03-02T10:26:37;11.63;;;5.63;;
68858;SDS011;55864;49.238;8.092;2024-03-02T10:28:41;11.02;;;5.63;;
68858;SDS011;55864;49.238;8.092;2024-03-02T10:30:47;10.80;;;5.60;;
68858;SDS011;55864;49.238;8.092;2024-03-02T10:32:48;9.63;;;5.10;;
68858;SDS011;55864;49.238;8.092;2024-03-02T10:34:49;12.33;;;5.20;;
68858;SDS011;55864;49.238;8.092;2024-03-02T10:36:50;9.20;;;5.13;;
68858;SDS011;55864;49.238;8.092;2024-03-02T10:38:51;10.70;;;4.72;;
68858;SDS011;55864;49.238;8.092;2024-03-02T10:40:52;9.47;;;4.90;;
68858;SDS011;55864;49.238;8.092;2024-03-02T10:42:54;8.35;;;4.50;;
68858;SDS011;55864;49.238;8.092;2024-03-02T10:44:55;9.70;;;4.38;;
68858;SDS011;55864;49.238;8.092;2024-03-02T10:46:56;9.07;;;4.10;;
68858;SDS011;55864;49.238;8.092;2024-03-02T10:48:59;8.13;;;4.53;;
68858;SDS011;55864;49.238;8.092;2024-03-02T10:51:00;9.20;;;4.40;;
68858;SDS011;55864;49.238;8.092;2024-03-02T10:53:01;8.60;;;4.45;;
68858;SDS011;55864;49.238;8.092;2024-03-02T10:55:01;8.25;;;4.30;;
68858;SDS011;55864;49.238;8.092;2024-03-02T10:57:02;9.27;;;4.55;;
68858;SDS011;55864;49.238;8.092;2024-03-02T10:59:06;8.87;;;4.47;;
68858;SDS011;55864;49.238;8.092;2024-03-02T11:01:17;9.27;;;4.27;;
68858;SDS011;55864;49.238;8.092;2024-03-02T11:03:18;8.65;;;4.13;;
68858;SDS011;55864;49.238;8.092;2024-03-02T11:05:23;7.22;;;3.75;;
68858;SDS011;55864;49.238;8.092;2024-03-02T11:07:27;7.80;;;3.90;;
68858;SDS011;55864;49.238;8.092;2024-03-02T11:09:28;8.65;;;4.10;;
68858;SDS011;55864;49.238;8.092;2024-03-02T11:11:30;8.70;;;4.13;;
68858;SDS011;55864;49.238;8.092;2024-03-02T11:13:33;8.13;;;4.20;;
68858;SDS011;55864;49.238;8.092;2024-03-02T11:15:35;8.65;;;4.13;;
68858;SDS011;55864;49.238;8.092;2024-03-02T11:17:36;9.55;;;4.20;;
68858;SDS011;55864;49.238;8.092;2024-03-02T11:19:38;8.75;;;4.55;;
68858;SDS011;55864;49.238;8.092;2024-03-02T11:21:40;8.57;;;4.50;;
68858;SDS011;55864;49.238;8.092;2024-03-02T11:23:41;10.88;;;4.20;;
68858;SDS011;55864;49.238;8.092;2024-03-02T11:25:42;8.48;;;4.22;;
68858;SDS011;55864;49.238;8.092;2024-03-02T11:30:05;8.52;;;3.50;;
68858;SDS011;55864;49.238;8.092;2024-03-02T11:32:13;7.57;;;4.13;;
68858;SDS011;55864;49.238;8.092;2024-03-02T11:34:18;17.98;;;10.15;;
68858;SDS011;55864;49.238;8.092;2024-03-02T11:36:29;11.82;;;6.85;;
68858;SDS011;55864;49.238;8.092;2024-03-02T11:38:31;8.45;;;3.72;;
68858;SDS011;55864;49.238;8.092;2024-03-02T11:40:32;7.40;;;3.30;;
68858;SDS011;55864;49.238;8.092;2024-03-02T11:42:33;9.10;;;3.45;;
68858;SDS011;55864;49.238;8.092;2024-03-02T11:44:33;7.43;;;3.35;;
68858;SDS011;55864;49.238;8.092;2024-03-02T11:46:34;7.93;;;3.50;;
68858;SDS011;55864;49.238;8.092;2024-03-02T11:48:36;7.20;;;3.55;;
68858;SDS011;55864;49.238;8.092;2024-03-02T11:50:40;7.00;;;3.30;;
68858;SDS011;55864;49.238;8.092;2024-03-02T11:52:42;6.88;;;3.60;;
68858;SDS011;55864;49.238;8.092;2024-03-02T11:54:44;8.85;;;3.50;;
68858;SDS011;55864;49.238;8.092;2024-03-02T11:56:46;10.02;;;4.00;;
68858;SDS011;55864;49.238;8.092;2024-03-02T11:58:47;8.80;;;3.40;;
68858;SDS011;55864;49.238;8.092;2024-03-02T12:00:47;7.45;;;3.50;;
68858;SDS011;55864;49.238;8.092;2024-03-02T12:02:59;8.07;;;3.50;;
68858;SDS011;55864;49.238;8.092;2024-03-02T12:05:02;9.00;;;3.90;;
68858;SDS011;55864;49.238;8.092;2024-03-02T12:07:04;7.68;;;3.40;;
68858;SDS011;55864;49.238;8.092;2024-03-02T12:09:05;7.40;;;3.03;;
68858;SDS011;55864;49.238;8.092;2024-03-02T12:11:06;6.95;;;3.22;;
68858;SDS011;55864;49.238;8.092;2024-03-02T12:13:06;7.57;;;3.20;;